sensor_id;sensor_type;location;lat;lon;timestamp;P1;durP1;ratioP1;P2;durP2;ratioP2
65863;SDS011;52639;51.180;20.460;2022-10-19T00:02:57;15.82;;;9.38;;
65863;SDS011;52639;51.180;20.460;2022-10-19T00:07:01;20.38;;;9.80;;
65863;SDS011;52639;51.180;20.460;2022-10-19T00:11:04;18.20;;;9.77;;
65863;SDS011;52639;51.180;20.460;2022-10-19T00:15:07;20.45;;;10.00;;
65863;SDS011;52639;51.180;20.460;2022-10-19T00:19:11;17.83;;;10.13;;
65863;SDS011;52639;51.180;20.460;2022-10-19T00:23:17;18.73;;;12.20;;
65863;SDS011;52639;51.180;20.460;2022-10-19T00:27:20;19.75;;;11.77;;
65863;SDS011;52639;51.180;20.460;2022-10-19T00:31:22;18.50;;;10.75;;
65863;SDS011;52639;51.180;20.460;2022-10-19T00:35:25;16.45;;;7.90;;
65863;SDS011;52639;51.180;20.460;2022-10-19T00:39:29;20.90;;;11.38;;
65863;SDS011;52639;51.180;20.460;2022-10-19T00:47:53;28.63;;;14.85;;
65863;SDS011;52639;51.180;20.460;2022-10-19T00:51:57;29.80;;;14.90;;
65863;SDS011;52639;51.180;20.460;2022-10-19T00:56:06;35.42;;;16.23;;
65863;SDS011;52639;51.180;20.460;2022-10-19T01:00:15;25.30;;;15.20;;
65863;SDS011;52639;51.180;20.460;2022-10-19T01:04:18;33.38;;;17.42;;
65863;SDS011;52639;51.180;20.460;2022-10-19T01:08:22;31.88;;;17.38;;
65863;SDS011;52639;51.180;20.460;2022-10-19T01:12:40;33.28;;;16.25;;
65863;SDS011;52639;51.180;20.460;2022-10-19T01:16:54;32.78;;;15.77;;
65863;SDS011;52639;51.180;20.460;2022-10-19T01:21:11;32.08;;;16.40;;
65863;SDS011;52639;51.180;20.460;2022-10-19T01:25:20;31.02;;;16.35;;
65863;SDS011;52639;51.180;20.460;2022-10-19T01:29:29;31.58;;;17.58;;
65863;SDS011;52639;51.180;20.460;2022-10-19T01:33:47;37.40;;;17.52;;
65863;SDS011;52639;51.180;20.460;2022-10-19T01:37:59;45.70;;;18.90;;
65863;SDS011;52639;51.180;20.460;2022-10-19T01:42:10;56.88;;;21.70;;
65863;SDS011;52639;51.180;20.460;2022-10-19T01:46:16;53.55;;;21.90;;
65863;SDS011;52639;51.180;20.460;2022-10-19T01:50:24;48.13;;;17.77;;
65863;SDS011;52639;51.180;20.460;2022-10-19T01:54:33;41.67;;;15.98;;
65863;SDS011;52639;51.180;20.460;2022-10-19T01:58:39;38.97;;;15.95;;
65863;SDS011;52639;51.180;20.460;2022-10-19T02:02:45;36.60;;;15.35;;
65863;SDS011;52639;51.180;20.460;2022-10-19T02:06:52;31.58;;;15.85;;
65863;SDS011;52639;51.180;20.460;2022-10-19T02:10:55;31.42;;;15.82;;
65863;SDS011;52639;51.180;20.460;2022-10-19T02:15:00;28.27;;;15.15;;
65863;SDS011;52639;51.180;20.460;2022-10-19T02:19:06;27.05;;;13.93;;
65863;SDS011;52639;51.180;20.460;2022-10-19T02:23:12;30.63;;;15.35;;
65863;SDS011;52639;51.180;20.460;2022-10-19T02:27:17;32.70;;;15.50;;
65863;SDS011;52639;51.180;20.460;2022-10-19T02:31:20;27.73;;;14.32;;
65863;SDS011;52639;51.180;20.460;2022-10-19T02:35:23;31.00;;;15.10;;
65863;SDS011;52639;51.180;20.460;2022-10-19T02:39:27;34.97;;;14.82;;
65863;SDS011;52639;51.180;20.460;2022-10-19T02:43:29;32.05;;;14.63;;
65863;SDS011;52639;51.180;20.460;2022-10-19T02:47:36;36.13;;;15.68;;
65863;SDS011;52639;51.180;20.460;2022-10-19T02:51:54;30.77;;;15.63;;
65863;SDS011;52639;51.180;20.460;2022-10-19T02:56:00;33.72;;;14.98;;
65863;SDS011;52639;51.180;20.460;2022-10-19T03:00:03;35.75;;;15.35;;
65863;SDS011;52639;51.180;20.460;2022-10-19T03:04:06;36.65;;;16.20;;
65863;SDS011;52639;51.180;20.460;2022-10-19T03:08:09;38.92;;;15.60;;
65863;SDS011;52639;51.180;20.460;2022-10-19T03:12:12;43.03;;;17.00;;
65863;SDS011;52639;51.180;20.460;2022-10-19T03:16:15;51.72;;;17.15;;
65863;SDS011;52639;51.180;20.460;2022-10-19T03:20:18;64.18;;;17.40;;
65863;SDS011;52639;51.180;20.460;2022-10-19T03:24:20;59.78;;;18.30;;
65863;SDS011;52639;51.180;20.460;2022-10-19T03:28:25;62.47;;;18.70;;
65863;SDS011;52639;51.180;20.460;2022-10-19T03:32:27;63.85;;;17.70;;
65863;SDS011;52639;51.180;20.460;2022-10-19T03:36:32;61.65;;;18.23;;
65863;SDS011;52639;51.180;20.460;2022-10-19T03:40:35;89.95;;;24.30;;
65863;SDS011;52639;51.180;20.460;2022-10-19T03:44:40;96.93;;;26.83;;
65863;SDS011;52639;51.180;20.460;2022-10-19T03:48:42;87.68;;;22.52;;
65863;SDS011;52639;51.180;20.460;2022-10-19T03:52:45;85.35;;;21.65;;
65863;SDS011;52639;51.180;20.460;2022-10-19T03:56:49;92.03;;;22.63;;
65863;SDS011;52639;51.180;20.460;2022-10-19T04:00:53;109.68;;;28.25;;
65863;SDS011;52639;51.180;20.460;2022-10-19T04:04:55;187.75;;;52.58;;
65863;SDS011;52639;51.180;20.460;2022-10-19T04:08:58;233.88;;;54.38;;
65863;SDS011;52639;51.180;20.460;2022-10-19T04:13:00;138.80;;;32.10;;
65863;SDS011;52639;51.180;20.460;2022-10-19T04:17:04;260.17;;;64.72;;
65863;SDS011;52639;51.180;20.460;2022-10-19T04:21:16;166.32;;;42.53;;
65863;SDS011;52639;51.180;20.460;2022-10-19T04:25:21;227.15;;;51.88;;
65863;SDS011;52639;51.180;20.460;2022-10-19T04:29:24;94.45;;;23.58;;
65863;SDS011;52639;51.180;20.460;2022-10-19T04:33:28;106.25;;;29.40;;
65863;SDS011;52639;51.180;20.460;2022-10-19T04:37:30;116.97;;;36.13;;
65863;SDS011;52639;51.180;20.460;2022-10-19T04:41:33;89.32;;;25.85;;
65863;SDS011;52639;51.180;20.460;2022-10-19T04:45:36;77.10;;;23.63;;
65863;SDS011;52639;51.180;20.460;2022-10-19T04:49:40;68.10;;;22.67;;
65863;SDS011;52639;51.180;20.460;2022-10-19T04:53:42;72.65;;;22.13;;
65863;SDS011;52639;51.180;20.460;2022-10-19T04:57:45;70.95;;;18.95;;
65863;SDS011;52639;51.180;20.460;2022-10-19T05:01:47;70.15;;;20.02;;
65863;SDS011;52639;51.180;20.460;2022-10-19T05:05:51;68.40;;;20.02;;
65863;SDS011;52639;51.180;20.460;2022-10-19T05:09:53;72.90;;;21.63;;
65863;SDS011;52639;51.180;20.460;2022-10-19T05:13:56;82.95;;;25.08;;
65863;SDS011;52639;51.180;20.460;2022-10-19T05:17:58;65.28;;;19.77;;
65863;SDS011;52639;51.180;20.460;2022-10-19T05:22:04;57.63;;;17.20;;
65863;SDS011;52639;51.180;20.460;2022-10-19T05:26:07;44.67;;;16.73;;
65863;SDS011;52639;51.180;20.460;2022-10-19T05:30:11;61.72;;;18.60;;
65863;SDS011;52639;51.180;20.460;2022-10-19T05:34:14;41.28;;;15.35;;
65863;SDS011;52639;51.180;20.460;2022-10-19T05:38:18;42.60;;;15.80;;
65863;SDS011;52639;51.180;20.460;2022-10-19T05:42:20;31.63;;;12.60;;
65863;SDS011;52639;51.180;20.460;2022-10-19T05:46:23;26.95;;;11.95;;
65863;SDS011;52639;51.180;20.460;2022-10-19T05:50:26;33.22;;;12.82;;
65863;SDS011;52639;51.180;20.460;2022-10-19T05:54:30;27.20;;;13.27;;
65863;SDS011;52639;51.180;20.460;2022-10-19T05:58:33;24.80;;;13.38;;
65863;SDS011;52639;51.180;20.460;2022-10-19T06:02:36;33.42;;;15.05;;
65863;SDS011;52639;51.180;20.460;2022-10-19T06:06:38;28.52;;;13.05;;
65863;SDS011;52639;51.180;20.460;2022-10-19T06:10:42;28.98;;;12.88;;
65863;SDS011;52639;51.180;20.460;2022-10-19T06:14:48;26.40;;;12.68;;
65863;SDS011;52639;51.180;20.460;2022-10-19T06:18:52;30.10;;;13.98;;
65863;SDS011;52639;51.180;20.460;2022-10-19T06:22:55;24.42;;;11.90;;
65863;SDS011;52639;51.180;20.460;2022-10-19T06:26:59;22.73;;;11.73;;
65863;SDS011;52639;51.180;20.460;2022-10-19T06:31:01;28.92;;;13.02;;
65863;SDS011;52639;51.180;20.460;2022-10-19T06:35:04;18.85;;;11.93;;
65863;SDS011;52639;51.180;20.460;2022-10-19T06:39:06;27.80;;;11.77;;
65863;SDS011;52639;51.180;20.460;2022-10-19T06:43:10;25.42;;;12.57;;
65863;SDS011;52639;51.180;20.460;2022-10-19T06:47:13;24.45;;;12.98;;
65863;SDS011;52639;51.180;20.460;2022-10-19T06:51:15;21.08;;;11.90;;
65863;SDS011;52639;51.180;20.460;2022-10-19T06:55:18;27.23;;;12.25;;
65863;SDS011;52639;51.180;20.460;2022-10-19T06:59:22;22.35;;;11.73;;
65863;SDS011;52639;51.180;20.460;2022-10-19T07:03:24;17.55;;;10.57;;
65863;SDS011;52639;51.180;20.460;2022-10-19T07:07:27;22.05;;;11.13;;
65863;SDS011;52639;51.180;20.460;2022-10-19T07:11:30;19.23;;;10.65;;
65863;SDS011;52639;51.180;20.460;2022-10-19T07:15:34;18.05;;;10.30;;
65863;SDS011;52639;51.180;20.460;2022-10-19T07:19:36;19.95;;;10.40;;
65863;SDS011;52639;51.180;20.460;2022-10-19T07:23:39;21.80;;;9.98;;
65863;SDS011;52639;51.180;20.460;2022-10-19T07:27:43;23.23;;;9.48;;
65863;SDS011;52639;51.180;20.460;2022-10-19T07:31:47;18.65;;;10.05;;
65863;SDS011;52639;51.180;20.460;2022-10-19T07:35:57;21.83;;;10.60;;
65863;SDS011;52639;51.180;20.460;2022-10-19T07:40:00;21.90;;;11.95;;
65863;SDS011;52639;51.180;20.460;2022-10-19T07:44:04;22.25;;;11.13;;
65863;SDS011;52639;51.180;20.460;2022-10-19T07:48:08;31.75;;;14.77;;
65863;SDS011;52639;51.180;20.460;2022-10-19T07:52:10;20.38;;;10.02;;
65863;SDS011;52639;51.180;20.460;2022-10-19T07:56:17;17.67;;;9.45;;
65863;SDS011;52639;51.180;20.460;2022-10-19T08:00:23;20.45;;;10.52;;
65863;SDS011;52639;51.180;20.460;2022-10-19T08:04:30;17.77;;;9.80;;
65863;SDS011;52639;51.180;20.460;2022-10-19T08:08:34;23.45;;;10.95;;
65863;SDS011;52639;51.180;20.460;2022-10-19T08:12:37;19.90;;;8.68;;
65863;SDS011;52639;51.180;20.460;2022-10-19T08:16:40;16.42;;;8.70;;
65863;SDS011;52639;51.180;20.460;2022-10-19T08:20:45;14.68;;;7.68;;
65863;SDS011;52639;51.180;20.460;2022-10-19T08:24:48;14.77;;;7.82;;
65863;SDS011;52639;51.180;20.460;2022-10-19T08:28:50;13.77;;;7.43;;
65863;SDS011;52639;51.180;20.460;2022-10-19T08:32:52;11.30;;;7.28;;
65863;SDS011;52639;51.180;20.460;2022-10-19T08:36:56;13.57;;;7.15;;
65863;SDS011;52639;51.180;20.460;2022-10-19T08:41:03;13.93;;;7.22;;
65863;SDS011;52639;51.180;20.460;2022-10-19T08:45:19;13.32;;;7.07;;
65863;SDS011;52639;51.180;20.460;2022-10-19T08:49:31;17.50;;;9.05;;
65863;SDS011;52639;51.180;20.460;2022-10-19T08:53:36;14.75;;;8.20;;
65863;SDS011;52639;51.180;20.460;2022-10-19T08:57:45;15.35;;;6.30;;
65863;SDS011;52639;51.180;20.460;2022-10-19T09:01:53;15.45;;;6.80;;
65863;SDS011;52639;51.180;20.460;2022-10-19T09:06:00;13.52;;;6.90;;
65863;SDS011;52639;51.180;20.460;2022-10-19T09:10:18;12.45;;;6.20;;
65863;SDS011;52639;51.180;20.460;2022-10-19T09:14:24;14.30;;;7.05;;
65863;SDS011;52639;51.180;20.460;2022-10-19T09:18:33;11.68;;;6.10;;
65863;SDS011;52639;51.180;20.460;2022-10-19T09:22:36;13.15;;;7.07;;
65863;SDS011;52639;51.180;20.460;2022-10-19T09:26:43;14.80;;;7.38;;
65863;SDS011;52639;51.180;20.460;2022-10-19T09:30:52;16.35;;;7.95;;
65863;SDS011;52639;51.180;20.460;2022-10-19T09:34:58;18.05;;;7.80;;
65863;SDS011;52639;51.180;20.460;2022-10-19T09:39:03;13.20;;;7.30;;
65863;SDS011;52639;51.180;20.460;2022-10-19T09:43:07;13.93;;;6.97;;
65863;SDS011;52639;51.180;20.460;2022-10-19T09:47:25;11.82;;;6.85;;
65863;SDS011;52639;51.180;20.460;2022-10-19T09:51:37;18.33;;;6.57;;
65863;SDS011;52639;51.180;20.460;2022-10-19T09:55:46;11.80;;;5.50;;
65863;SDS011;52639;51.180;20.460;2022-10-19T09:59:52;7.75;;;4.38;;
65863;SDS011;52639;51.180;20.460;2022-10-19T10:04:03;10.93;;;6.32;;
65863;SDS011;52639;51.180;20.460;2022-10-19T10:08:11;14.45;;;6.78;;
65863;SDS011;52639;51.180;20.460;2022-10-19T10:12:15;16.23;;;6.57;;
65863;SDS011;52639;51.180;20.460;2022-10-19T10:16:21;12.93;;;5.72;;
65863;SDS011;52639;51.180;20.460;2022-10-19T10:20:25;14.55;;;5.43;;
65863;SDS011;52639;51.180;20.460;2022-10-19T10:24:32;11.63;;;5.65;;
65863;SDS011;52639;51.180;20.460;2022-10-19T10:28:39;10.05;;;4.78;;
65863;SDS011;52639;51.180;20.460;2022-10-19T10:32:51;9.25;;;5.50;;
65863;SDS011;52639;51.180;20.460;2022-10-19T10:36:55;11.13;;;5.47;;
65863;SDS011;52639;51.180;20.460;2022-10-19T10:40:59;16.25;;;5.30;;
65863;SDS011;52639;51.180;20.460;2022-10-19T10:45:14;15.25;;;5.63;;
65863;SDS011;52639;51.180;20.460;2022-10-19T10:53:32;8.48;;;4.03;;
65863;SDS011;52639;51.180;20.460;2022-10-19T10:57:38;8.43;;;3.67;;
65863;SDS011;52639;51.180;20.460;2022-10-19T11:01:43;9.15;;;3.60;;
65863;SDS011;52639;51.180;20.460;2022-10-19T11:05:56;6.40;;;3.40;;
65863;SDS011;52639;51.180;20.460;2022-10-19T11:10:01;9.32;;;4.05;;
65863;SDS011;52639;51.180;20.460;2022-10-19T11:14:21;8.23;;;3.20;;
65863;SDS011;52639;51.180;20.460;2022-10-19T11:18:31;12.30;;;4.55;;
65863;SDS011;52639;51.180;20.460;2022-10-19T11:22:41;20.25;;;6.82;;
65863;SDS011;52639;51.180;20.460;2022-10-19T11:26:54;18.38;;;6.88;;
65863;SDS011;52639;51.180;20.460;2022-10-19T11:31:11;14.90;;;7.03;;
65863;SDS011;52639;51.180;20.460;2022-10-19T11:35:27;14.43;;;8.70;;
65863;SDS011;52639;51.180;20.460;2022-10-19T11:39:48;13.75;;;6.45;;
65863;SDS011;52639;51.180;20.460;2022-10-19T11:44:06;12.15;;;5.70;;
65863;SDS011;52639;51.180;20.460;2022-10-19T11:48:43;9.20;;;3.70;;
65863;SDS011;52639;51.180;20.460;2022-10-19T11:53:02;10.90;;;5.68;;
65863;SDS011;52639;51.180;20.460;2022-10-19T11:57:18;9.60;;;3.75;;
65863;SDS011;52639;51.180;20.460;2022-10-19T12:01:29;7.85;;;4.25;;
65863;SDS011;52639;51.180;20.460;2022-10-19T12:05:47;11.35;;;4.65;;
65863;SDS011;52639;51.180;20.460;2022-10-19T12:10:02;9.77;;;5.00;;
65863;SDS011;52639;51.180;20.460;2022-10-19T12:14:19;15.55;;;5.38;;
65863;SDS011;52639;51.180;20.460;2022-10-19T12:18:28;11.70;;;5.78;;
65863;SDS011;52639;51.180;20.460;2022-10-19T12:22:36;14.40;;;5.97;;
65863;SDS011;52639;51.180;20.460;2022-10-19T12:26:41;13.82;;;5.07;;
65863;SDS011;52639;51.180;20.460;2022-10-19T12:30:49;8.13;;;4.03;;
65863;SDS011;52639;51.180;20.460;2022-10-19T12:34:54;4.40;;;2.50;;
65863;SDS011;52639;51.180;20.460;2022-10-19T12:39:14;6.30;;;3.88;;
65863;SDS011;52639;51.180;20.460;2022-10-19T12:43:25;8.95;;;4.05;;
65863;SDS011;52639;51.180;20.460;2022-10-19T12:47:38;8.63;;;3.83;;
65863;SDS011;52639;51.180;20.460;2022-10-19T12:51:44;7.45;;;3.45;;
65863;SDS011;52639;51.180;20.460;2022-10-19T12:55:59;6.10;;;3.72;;
65863;SDS011;52639;51.180;20.460;2022-10-19T13:00:04;6.32;;;3.65;;
65863;SDS011;52639;51.180;20.460;2022-10-19T13:04:25;9.32;;;4.47;;
65863;SDS011;52639;51.180;20.460;2022-10-19T13:08:31;9.48;;;5.13;;
65863;SDS011;52639;51.180;20.460;2022-10-19T13:12:42;9.65;;;5.40;;
65863;SDS011;52639;51.180;20.460;2022-10-19T13:21:13;4.00;;;2.58;;
65863;SDS011;52639;51.180;20.460;2022-10-19T13:25:45;6.82;;;2.80;;
65863;SDS011;52639;51.180;20.460;2022-10-19T13:29:47;4.00;;;2.33;;
65863;SDS011;52639;51.180;20.460;2022-10-19T13:33:51;5.78;;;3.47;;
65863;SDS011;52639;51.180;20.460;2022-10-19T13:38:14;4.68;;;2.78;;
65863;SDS011;52639;51.180;20.460;2022-10-19T13:42:26;5.45;;;3.05;;
65863;SDS011;52639;51.180;20.460;2022-10-19T13:46:39;9.07;;;3.63;;
65863;SDS011;52639;51.180;20.460;2022-10-19T13:50:49;5.00;;;2.60;;
65863;SDS011;52639;51.180;20.460;2022-10-19T13:55:17;12.00;;;5.27;;
65863;SDS011;52639;51.180;20.460;2022-10-19T13:59:38;7.78;;;4.63;;
65863;SDS011;52639;51.180;20.460;2022-10-19T14:04:10;6.57;;;4.03;;
65863;SDS011;52639;51.180;20.460;2022-10-19T14:08:33;8.18;;;5.28;;
65863;SDS011;52639;51.180;20.460;2022-10-19T14:13:15;8.30;;;5.15;;
65863;SDS011;52639;51.180;20.460;2022-10-19T14:17:39;9.45;;;4.60;;
65863;SDS011;52639;51.180;20.460;2022-10-19T14:22:21;10.63;;;4.40;;
65863;SDS011;52639;51.180;20.460;2022-10-19T14:26:38;7.47;;;4.60;;
65863;SDS011;52639;51.180;20.460;2022-10-19T14:31:07;10.07;;;4.38;;
65863;SDS011;52639;51.180;20.460;2022-10-19T14:35:40;14.52;;;6.53;;
65863;SDS011;52639;51.180;20.460;2022-10-19T14:40:17;15.55;;;6.80;;
65863;SDS011;52639;51.180;20.460;2022-10-19T14:45:02;6.72;;;4.35;;
65863;SDS011;52639;51.180;20.460;2022-10-19T14:49:32;9.25;;;6.03;;
65863;SDS011;52639;51.180;20.460;2022-10-19T14:54:10;12.05;;;7.15;;
65863;SDS011;52639;51.180;20.460;2022-10-19T14:58:30;17.33;;;10.00;;
65863;SDS011;52639;51.180;20.460;2022-10-19T15:02:52;16.65;;;10.15;;
65863;SDS011;52639;51.180;20.460;2022-10-19T15:07:18;15.20;;;9.45;;
65863;SDS011;52639;51.180;20.460;2022-10-19T15:11:39;16.27;;;10.65;;
65863;SDS011;52639;51.180;20.460;2022-10-19T15:16:24;17.35;;;10.93;;
65863;SDS011;52639;51.180;20.460;2022-10-19T15:21:12;20.95;;;12.57;;
65863;SDS011;52639;51.180;20.460;2022-10-19T15:25:57;21.27;;;14.05;;
65863;SDS011;52639;51.180;20.460;2022-10-19T15:30:25;28.50;;;18.10;;
65863;SDS011;52639;51.180;20.460;2022-10-19T15:34:49;32.38;;;19.13;;
65863;SDS011;52639;51.180;20.460;2022-10-19T15:39:07;26.75;;;17.13;;
65863;SDS011;52639;51.180;20.460;2022-10-19T15:43:42;22.58;;;13.40;;
65863;SDS011;52639;51.180;20.460;2022-10-19T15:48:22;25.10;;;14.90;;
65863;SDS011;52639;51.180;20.460;2022-10-19T15:52:40;23.67;;;13.73;;
65863;SDS011;52639;51.180;20.460;2022-10-19T15:56:49;28.45;;;14.32;;
65863;SDS011;52639;51.180;20.460;2022-10-19T16:01:13;27.73;;;16.52;;
65863;SDS011;52639;51.180;20.460;2022-10-19T16:05:39;31.10;;;16.37;;
65863;SDS011;52639;51.180;20.460;2022-10-19T16:09:51;33.45;;;17.67;;
65863;SDS011;52639;51.180;20.460;2022-10-19T16:14:03;38.67;;;20.67;;
65863;SDS011;52639;51.180;20.460;2022-10-19T16:18:24;40.70;;;21.88;;
65863;SDS011;52639;51.180;20.460;2022-10-19T16:22:51;51.40;;;24.40;;
65863;SDS011;52639;51.180;20.460;2022-10-19T16:27:17;51.45;;;27.40;;
65863;SDS011;52639;51.180;20.460;2022-10-19T16:31:31;54.65;;;26.73;;
65863;SDS011;52639;51.180;20.460;2022-10-19T16:36:01;48.75;;;26.88;;
65863;SDS011;52639;51.180;20.460;2022-10-19T16:40:18;43.72;;;22.50;;
65863;SDS011;52639;51.180;20.460;2022-10-19T16:44:42;50.95;;;26.33;;
65863;SDS011;52639;51.180;20.460;2022-10-19T16:48:56;61.80;;;31.08;;
65863;SDS011;52639;51.180;20.460;2022-10-19T16:53:39;51.00;;;26.60;;
65863;SDS011;52639;51.180;20.460;2022-10-19T16:57:45;60.60;;;25.98;;
65863;SDS011;52639;51.180;20.460;2022-10-19T17:01:48;45.08;;;22.38;;
65863;SDS011;52639;51.180;20.460;2022-10-19T17:05:50;63.05;;;26.00;;
65863;SDS011;52639;51.180;20.460;2022-10-19T17:09:54;55.30;;;27.02;;
65863;SDS011;52639;51.180;20.460;2022-10-19T17:13:58;60.45;;;29.02;;
65863;SDS011;52639;51.180;20.460;2022-10-19T17:18:02;53.78;;;26.60;;
65863;SDS011;52639;51.180;20.460;2022-10-19T17:22:05;44.08;;;22.60;;
65863;SDS011;52639;51.180;20.460;2022-10-19T17:26:10;45.95;;;22.02;;
65863;SDS011;52639;51.180;20.460;2022-10-19T17:30:13;44.78;;;22.40;;
65863;SDS011;52639;51.180;20.460;2022-10-19T17:34:17;39.17;;;18.83;;
65863;SDS011;52639;51.180;20.460;2022-10-19T17:38:20;30.48;;;15.75;;
65863;SDS011;52639;51.180;20.460;2022-10-19T17:42:25;33.55;;;16.52;;
65863;SDS011;52639;51.180;20.460;2022-10-19T17:46:28;35.58;;;16.35;;
65863;SDS011;52639;51.180;20.460;2022-10-19T17:50:32;34.00;;;18.58;;
65863;SDS011;52639;51.180;20.460;2022-10-19T17:54:35;39.45;;;20.27;;
65863;SDS011;52639;51.180;20.460;2022-10-19T17:58:40;52.28;;;25.92;;
65863;SDS011;52639;51.180;20.460;2022-10-19T18:02:47;56.05;;;25.15;;
65863;SDS011;52639;51.180;20.460;2022-10-19T18:07:02;53.83;;;24.73;;
65863;SDS011;52639;51.180;20.460;2022-10-19T18:11:06;41.35;;;22.55;;
65863;SDS011;52639;51.180;20.460;2022-10-19T18:15:12;50.75;;;23.17;;
65863;SDS011;52639;51.180;20.460;2022-10-19T18:19:17;46.85;;;20.27;;
65863;SDS011;52639;51.180;20.460;2022-10-19T18:29:00;32.08;;;15.85;;
65863;SDS011;52639;51.180;20.460;2022-10-19T18:38:26;31.75;;;16.23;;
65863;SDS011;52639;51.180;20.460;2022-10-19T18:43:09;43.03;;;17.80;;
65863;SDS011;52639;51.180;20.460;2022-10-19T18:47:30;43.80;;;20.67;;
65863;SDS011;52639;51.180;20.460;2022-10-19T18:56:34;60.65;;;19.85;;
65863;SDS011;52639;51.180;20.460;2022-10-19T19:01:13;56.90;;;19.70;;
65863;SDS011;52639;51.180;20.460;2022-10-19T19:05:36;51.28;;;19.52;;
65863;SDS011;52639;51.180;20.460;2022-10-19T19:10:20;52.65;;;20.65;;
65863;SDS011;52639;51.180;20.460;2022-10-19T19:15:12;56.58;;;21.70;;
65863;SDS011;52639;51.180;20.460;2022-10-19T19:19:15;52.55;;;22.02;;
65863;SDS011;52639;51.180;20.460;2022-10-19T19:23:20;55.80;;;23.08;;
65863;SDS011;52639;51.180;20.460;2022-10-19T19:27:24;47.80;;;21.77;;
65863;SDS011;52639;51.180;20.460;2022-10-19T19:31:27;54.60;;;22.85;;
65863;SDS011;52639;51.180;20.460;2022-10-19T19:35:30;52.40;;;20.77;;
65863;SDS011;52639;51.180;20.460;2022-10-19T19:39:36;42.78;;;19.52;;
65863;SDS011;52639;51.180;20.460;2022-10-19T19:43:41;43.20;;;19.80;;
65863;SDS011;52639;51.180;20.460;2022-10-19T19:47:45;43.83;;;19.13;;
65863;SDS011;52639;51.180;20.460;2022-10-19T19:51:48;43.95;;;19.20;;
65863;SDS011;52639;51.180;20.460;2022-10-19T19:55:51;81.20;;;32.72;;
65863;SDS011;52639;51.180;20.460;2022-10-19T19:59:55;89.30;;;37.13;;
65863;SDS011;52639;51.180;20.460;2022-10-19T20:03:58;88.97;;;31.48;;
65863;SDS011;52639;51.180;20.460;2022-10-19T20:08:02;69.53;;;28.20;;
65863;SDS011;52639;51.180;20.460;2022-10-19T20:12:06;74.32;;;28.60;;
65863;SDS011;52639;51.180;20.460;2022-10-19T20:16:11;64.30;;;27.60;;
65863;SDS011;52639;51.180;20.460;2022-10-19T20:20:15;57.60;;;22.25;;
65863;SDS011;52639;51.180;20.460;2022-10-19T20:24:18;57.88;;;23.15;;
65863;SDS011;52639;51.180;20.460;2022-10-19T20:28:21;51.95;;;20.33;;
65863;SDS011;52639;51.180;20.460;2022-10-19T20:32:26;47.15;;;19.08;;
65863;SDS011;52639;51.180;20.460;2022-10-19T20:36:30;48.03;;;20.90;;
65863;SDS011;52639;51.180;20.460;2022-10-19T20:40:32;58.92;;;22.98;;
65863;SDS011;52639;51.180;20.460;2022-10-19T20:44:35;44.45;;;17.83;;
65863;SDS011;52639;51.180;20.460;2022-10-19T20:48:41;42.30;;;17.50;;
65863;SDS011;52639;51.180;20.460;2022-10-19T20:52:44;41.33;;;17.00;;
65863;SDS011;52639;51.180;20.460;2022-10-19T20:56:49;47.38;;;16.70;;
65863;SDS011;52639;51.180;20.460;2022-10-19T21:00:51;38.92;;;17.02;;
65863;SDS011;52639;51.180;20.460;2022-10-19T21:04:55;41.67;;;16.63;;
65863;SDS011;52639;51.180;20.460;2022-10-19T21:08:58;43.55;;;17.08;;
65863;SDS011;52639;51.180;20.460;2022-10-19T21:13:01;46.60;;;16.23;;
65863;SDS011;52639;51.180;20.460;2022-10-19T21:17:04;42.10;;;16.13;;
65863;SDS011;52639;51.180;20.460;2022-10-19T21:21:11;49.45;;;17.08;;
65863;SDS011;52639;51.180;20.460;2022-10-19T21:25:15;51.95;;;21.00;;
65863;SDS011;52639;51.180;20.460;2022-10-19T21:29:18;34.92;;;14.35;;
65863;SDS011;52639;51.180;20.460;2022-10-19T21:33:20;45.72;;;13.48;;
65863;SDS011;52639;51.180;20.460;2022-10-19T21:37:28;34.63;;;13.57;;
65863;SDS011;52639;51.180;20.460;2022-10-19T21:41:31;43.78;;;13.18;;
65863;SDS011;52639;51.180;20.460;2022-10-19T21:45:36;33.30;;;12.07;;
65863;SDS011;52639;51.180;20.460;2022-10-19T21:49:38;29.33;;;11.77;;
65863;SDS011;52639;51.180;20.460;2022-10-19T21:53:42;22.35;;;9.88;;
65863;SDS011;52639;51.180;20.460;2022-10-19T21:57:46;30.50;;;11.65;;
65863;SDS011;52639;51.180;20.460;2022-10-19T22:01:48;23.83;;;9.40;;
65863;SDS011;52639;51.180;20.460;2022-10-19T22:05:51;21.25;;;9.25;;
65863;SDS011;52639;51.180;20.460;2022-10-19T22:09:54;24.60;;;8.60;;
65863;SDS011;52639;51.180;20.460;2022-10-19T22:13:58;18.60;;;8.00;;
65863;SDS011;52639;51.180;20.460;2022-10-19T22:18:01;18.88;;;8.13;;
65863;SDS011;52639;51.180;20.460;2022-10-19T22:22:04;23.92;;;8.90;;
65863;SDS011;52639;51.180;20.460;2022-10-19T22:26:12;24.77;;;9.68;;
65863;SDS011;52639;51.180;20.460;2022-10-19T22:30:15;23.30;;;8.48;;
65863;SDS011;52639;51.180;20.460;2022-10-19T22:34:18;24.27;;;8.75;;
65863;SDS011;52639;51.180;20.460;2022-10-19T22:38:21;21.98;;;8.23;;
65863;SDS011;52639;51.180;20.460;2022-10-19T22:42:24;19.75;;;8.05;;
65863;SDS011;52639;51.180;20.460;2022-10-19T22:46:27;21.70;;;8.15;;
65863;SDS011;52639;51.180;20.460;2022-10-19T22:50:29;19.40;;;7.82;;
65863;SDS011;52639;51.180;20.460;2022-10-19T22:54:32;21.80;;;8.40;;
65863;SDS011;52639;51.180;20.460;2022-10-19T22:58:36;16.60;;;7.28;;
65863;SDS011;52639;51.180;20.460;2022-10-19T23:02:38;35.45;;;9.70;;
65863;SDS011;52639;51.180;20.460;2022-10-19T23:06:41;23.13;;;9.57;;
65863;SDS011;52639;51.180;20.460;2022-10-19T23:10:44;25.15;;;8.85;;
65863;SDS011;52639;51.180;20.460;2022-10-19T23:14:47;24.15;;;8.30;;
65863;SDS011;52639;51.180;20.460;2022-10-19T23:18:50;17.73;;;8.27;;
65863;SDS011;52639;51.180;20.460;2022-10-19T23:22:53;24.55;;;7.97;;
65863;SDS011;52639;51.180;20.460;2022-10-19T23:26:55;20.50;;;8.05;;
65863;SDS011;52639;51.180;20.460;2022-10-19T23:31:01;19.08;;;7.65;;
65863;SDS011;52639;51.180;20.460;2022-10-19T23:35:06;20.30;;;8.63;;
65863;SDS011;52639;51.180;20.460;2022-10-19T23:39:09;19.02;;;6.85;;
65863;SDS011;52639;51.180;20.460;2022-10-19T23:43:11;17.80;;;8.00;;
65863;SDS011;52639;51.180;20.460;2022-10-19T23:47:15;16.13;;;7.10;;
65863;SDS011;52639;51.180;20.460;2022-10-19T23:51:18;18.20;;;6.68;;
65863;SDS011;52639;51.180;20.460;2022-10-19T23:55:22;15.77;;;7.30;;
65863;SDS011;52639;51.180;20.460;2022-10-19T23:59:24;19.95;;;7.82;;
